sensor_id;sensor_type;location;lat;lon;timestamp;temperature;humidity
573;DHT22;271;51.114;13.780;2022-12-17T00:00:01;-3.00;1.00
573;DHT22;271;51.114;13.780;2022-12-17T00:02:48;-3.10;1.00
573;DHT22;271;51.114;13.780;2022-12-17T00:05:32;-3.10;1.00
573;DHT22;271;51.114;13.780;2022-12-17T00:08:18;-3.10;1.00
573;DHT22;271;51.114;13.780;2022-12-17T00:11:02;-3.10;1.00
573;DHT22;271;51.114;13.780;2022-12-17T00:13:47;-3.10;1.00
573;DHT22;271;51.114;13.780;2022-12-17T00:16:32;-3.10;1.00
573;DHT22;271;51.114;13.780;2022-12-17T00:19:18;-3.10;1.00
573;DHT22;271;51.114;13.780;2022-12-17T00:22:03;-3.10;1.00
573;DHT22;271;51.114;13.780;2022-12-17T00:24:48;-3.00;1.00
573;DHT22;271;51.114;13.780;2022-12-17T00:27:33;-3.00;1.00
573;DHT22;271;51.114;13.780;2022-12-17T00:30:18;-2.90;1.00
573;DHT22;271;51.114;13.780;2022-12-17T00:33:03;-2.90;1.00
573;DHT22;271;51.114;13.780;2022-12-17T00:35:53;-3.00;1.00
573;DHT22;271;51.114;13.780;2022-12-17T00:38:38;-2.90;1.00
573;DHT22;271;51.114;13.780;2022-12-17T00:41:23;-3.00;1.00
573;DHT22;271;51.114;13.780;2022-12-17T00:44:08;-3.10;1.00
573;DHT22;271;51.114;13.780;2022-12-17T00:46:53;-3.20;1.00
573;DHT22;271;51.114;13.780;2022-12-17T00:49:38;-3.10;1.00
573;DHT22;271;51.114;13.780;2022-12-17T00:52:24;-3.20;1.00
573;DHT22;271;51.114;13.780;2022-12-17T00:55:08;-3.20;1.00
573;DHT22;271;51.114;13.780;2022-12-17T00:57:54;-3.10;1.00
573;DHT22;271;51.114;13.780;2022-12-17T01:00:39;-3.10;1.00
573;DHT22;271;51.114;13.780;2022-12-17T01:03:25;-3.10;1.00
573;DHT22;271;51.114;13.780;2022-12-17T01:06:10;-3.10;1.00
573;DHT22;271;51.114;13.780;2022-12-17T01:08:57;-3.10;1.00
573;DHT22;271;51.114;13.780;2022-12-17T01:11:42;-3.00;1.00
573;DHT22;271;51.114;13.780;2022-12-17T01:14:27;-3.00;1.00
573;DHT22;271;51.114;13.780;2022-12-17T01:17:12;-3.10;1.00
573;DHT22;271;51.114;13.780;2022-12-17T01:19:57;-3.10;1.00
573;DHT22;271;51.114;13.780;2022-12-17T01:22:41;-3.00;1.00
573;DHT22;271;51.114;13.780;2022-12-17T01:25:27;-3.10;1.00
573;DHT22;271;51.114;13.780;2022-12-17T01:28:12;-3.10;1.00
573;DHT22;271;51.114;13.780;2022-12-17T01:30:57;-3.20;1.00
573;DHT22;271;51.114;13.780;2022-12-17T01:33:41;-3.20;1.00
573;DHT22;271;51.114;13.780;2022-12-17T01:36:26;-3.20;1.00
573;DHT22;271;51.114;13.780;2022-12-17T01:39:11;-3.00;1.00
573;DHT22;271;51.114;13.780;2022-12-17T01:41:57;-3.00;1.00
573;DHT22;271;51.114;13.780;2022-12-17T01:44:52;-3.00;1.00
573;DHT22;271;51.114;13.780;2022-12-17T01:47:40;-3.00;1.00
573;DHT22;271;51.114;13.780;2022-12-17T01:50:30;-3.10;1.00
573;DHT22;271;51.114;13.780;2022-12-17T01:53:19;-3.00;1.00
573;DHT22;271;51.114;13.780;2022-12-17T01:56:06;-2.80;1.00
573;DHT22;271;51.114;13.780;2022-12-17T01:58:53;-3.00;1.00
573;DHT22;271;51.114;13.780;2022-12-17T02:01:39;-3.10;1.00
573;DHT22;271;51.114;13.780;2022-12-17T02:04:24;-3.10;1.00
573;DHT22;271;51.114;13.780;2022-12-17T02:07:19;-3.00;1.00
573;DHT22;271;51.114;13.780;2022-12-17T02:10:22;-3.10;1.00
573;DHT22;271;51.114;13.780;2022-12-17T02:13:13;-3.00;1.00
573;DHT22;271;51.114;13.780;2022-12-17T02:16:07;-3.00;1.00
573;DHT22;271;51.114;13.780;2022-12-17T02:19:09;-3.00;1.00
573;DHT22;271;51.114;13.780;2022-12-17T02:22:07;-3.00;1.00
573;DHT22;271;51.114;13.780;2022-12-17T02:24:59;-3.00;1.00
573;DHT22;271;51.114;13.780;2022-12-17T02:27:50;-3.10;1.00
573;DHT22;271;51.114;13.780;2022-12-17T02:30:36;-3.00;1.00
573;DHT22;271;51.114;13.780;2022-12-17T02:33:21;-3.00;1.00
573;DHT22;271;51.114;13.780;2022-12-17T02:36:07;-2.90;1.00
573;DHT22;271;51.114;13.780;2022-12-17T02:38:52;-3.00;1.00
573;DHT22;271;51.114;13.780;2022-12-17T02:41:40;-3.00;1.00
573;DHT22;271;51.114;13.780;2022-12-17T02:44:27;-3.00;1.00
573;DHT22;271;51.114;13.780;2022-12-17T02:47:13;-3.00;1.00
573;DHT22;271;51.114;13.780;2022-12-17T02:49:59;-3.10;1.00
573;DHT22;271;51.114;13.780;2022-12-17T02:52:45;-3.00;1.00
573;DHT22;271;51.114;13.780;2022-12-17T02:55:31;-3.00;1.00
573;DHT22;271;51.114;13.780;2022-12-17T02:58:15;-2.80;1.00
573;DHT22;271;51.114;13.780;2022-12-17T03:01:01;-3.00;1.00
573;DHT22;271;51.114;13.780;2022-12-17T03:03:46;-3.00;1.00
573;DHT22;271;51.114;13.780;2022-12-17T03:06:30;-3.00;1.00
573;DHT22;271;51.114;13.780;2022-12-17T03:09:15;-2.80;1.00
573;DHT22;271;51.114;13.780;2022-12-17T03:12:00;-2.90;1.00
573;DHT22;271;51.114;13.780;2022-12-17T03:14:45;-2.90;1.00
573;DHT22;271;51.114;13.780;2022-12-17T03:17:31;-3.00;1.00
573;DHT22;271;51.114;13.780;2022-12-17T03:20:16;-3.00;1.00
573;DHT22;271;51.114;13.780;2022-12-17T03:23:02;-3.00;1.00
573;DHT22;271;51.114;13.780;2022-12-17T03:25:46;-3.00;1.00
573;DHT22;271;51.114;13.780;2022-12-17T03:28:31;-2.90;1.00
573;DHT22;271;51.114;13.780;2022-12-17T03:31:16;-3.00;1.00
573;DHT22;271;51.114;13.780;2022-12-17T03:34:02;-3.00;1.00
573;DHT22;271;51.114;13.780;2022-12-17T03:36:47;-3.00;1.00
573;DHT22;271;51.114;13.780;2022-12-17T03:39:31;-2.90;1.00
573;DHT22;271;51.114;13.780;2022-12-17T03:42:17;-2.90;1.00
573;DHT22;271;51.114;13.780;2022-12-17T03:45:01;-2.90;1.00
573;DHT22;271;51.114;13.780;2022-12-17T03:47:46;-2.80;1.00
573;DHT22;271;51.114;13.780;2022-12-17T03:50:32;-2.90;1.00
573;DHT22;271;51.114;13.780;2022-12-17T03:53:17;-2.90;1.00
573;DHT22;271;51.114;13.780;2022-12-17T03:56:02;-2.90;1.00
573;DHT22;271;51.114;13.780;2022-12-17T03:58:47;-2.90;1.00
573;DHT22;271;51.114;13.780;2022-12-17T04:01:32;-2.90;1.00
573;DHT22;271;51.114;13.780;2022-12-17T04:04:17;-2.90;1.00
573;DHT22;271;51.114;13.780;2022-12-17T04:07:03;-2.80;1.00
573;DHT22;271;51.114;13.780;2022-12-17T04:09:48;-2.80;1.00
573;DHT22;271;51.114;13.780;2022-12-17T04:12:33;-2.90;1.00
573;DHT22;271;51.114;13.780;2022-12-17T04:15:20;-2.90;1.00
573;DHT22;271;51.114;13.780;2022-12-17T04:18:05;-2.90;1.00
573;DHT22;271;51.114;13.780;2022-12-17T04:21:05;-2.80;1.00
573;DHT22;271;51.114;13.780;2022-12-17T04:23:51;-2.80;1.00
573;DHT22;271;51.114;13.780;2022-12-17T04:26:36;-2.70;1.00
573;DHT22;271;51.114;13.780;2022-12-17T04:29:21;-2.80;1.00
573;DHT22;271;51.114;13.780;2022-12-17T04:32:05;-2.70;1.00
573;DHT22;271;51.114;13.780;2022-12-17T04:34:50;-2.80;1.00
573;DHT22;271;51.114;13.780;2022-12-17T04:37:35;-2.80;1.00
573;DHT22;271;51.114;13.780;2022-12-17T04:40:22;-2.90;1.00
573;DHT22;271;51.114;13.780;2022-12-17T04:43:07;-2.90;1.00
573;DHT22;271;51.114;13.780;2022-12-17T04:45:53;-2.80;1.00
573;DHT22;271;51.114;13.780;2022-12-17T04:48:37;-2.80;1.00
573;DHT22;271;51.114;13.780;2022-12-17T04:51:22;-2.70;1.00
573;DHT22;271;51.114;13.780;2022-12-17T04:54:08;-2.70;1.00
573;DHT22;271;51.114;13.780;2022-12-17T04:56:53;-2.70;1.00
573;DHT22;271;51.114;13.780;2022-12-17T04:59:38;-2.70;1.00
573;DHT22;271;51.114;13.780;2022-12-17T05:02:23;-2.70;1.00
573;DHT22;271;51.114;13.780;2022-12-17T05:05:08;-2.80;1.00
573;DHT22;271;51.114;13.780;2022-12-17T05:07:53;-2.80;1.00
573;DHT22;271;51.114;13.780;2022-12-17T05:10:38;-2.80;1.00
573;DHT22;271;51.114;13.780;2022-12-17T05:13:25;-2.80;1.00
573;DHT22;271;51.114;13.780;2022-12-17T05:16:09;-2.80;1.00
573;DHT22;271;51.114;13.780;2022-12-17T05:18:54;-2.70;1.00
573;DHT22;271;51.114;13.780;2022-12-17T05:21:39;-2.70;1.00
573;DHT22;271;51.114;13.780;2022-12-17T05:24:24;-2.60;1.00
573;DHT22;271;51.114;13.780;2022-12-17T05:27:09;-2.60;1.00
573;DHT22;271;51.114;13.780;2022-12-17T05:29:55;-2.70;1.00
573;DHT22;271;51.114;13.780;2022-12-17T05:32:40;-2.70;1.00
573;DHT22;271;51.114;13.780;2022-12-17T05:35:25;-2.60;1.00
573;DHT22;271;51.114;13.780;2022-12-17T05:38:10;-2.60;1.00
573;DHT22;271;51.114;13.780;2022-12-17T05:41:04;-2.60;1.00
573;DHT22;271;51.114;13.780;2022-12-17T05:43:49;-2.50;1.00
573;DHT22;271;51.114;13.780;2022-12-17T05:46:35;-2.50;1.00
573;DHT22;271;51.114;13.780;2022-12-17T05:49:20;-2.60;1.00
573;DHT22;271;51.114;13.780;2022-12-17T05:52:05;-2.40;1.00
573;DHT22;271;51.114;13.780;2022-12-17T05:54:50;-2.50;1.00
573;DHT22;271;51.114;13.780;2022-12-17T05:57:35;-2.70;1.00
573;DHT22;271;51.114;13.780;2022-12-17T06:00:20;-2.60;1.00
573;DHT22;271;51.114;13.780;2022-12-17T06:03:07;-2.60;1.00
573;DHT22;271;51.114;13.780;2022-12-17T06:05:53;-2.50;1.00
573;DHT22;271;51.114;13.780;2022-12-17T06:08:38;-2.50;1.00
573;DHT22;271;51.114;13.780;2022-12-17T06:11:23;-2.50;1.00
573;DHT22;271;51.114;13.780;2022-12-17T06:14:07;-2.40;1.00
573;DHT22;271;51.114;13.780;2022-12-17T06:16:52;-2.50;1.00
573;DHT22;271;51.114;13.780;2022-12-17T06:19:39;-2.50;1.00
573;DHT22;271;51.114;13.780;2022-12-17T06:22:23;-2.60;1.00
573;DHT22;271;51.114;13.780;2022-12-17T06:25:08;-2.60;1.00
573;DHT22;271;51.114;13.780;2022-12-17T06:27:57;-2.50;1.00
573;DHT22;271;51.114;13.780;2022-12-17T06:30:48;-2.50;1.00
573;DHT22;271;51.114;13.780;2022-12-17T06:33:32;-2.40;1.00
573;DHT22;271;51.114;13.780;2022-12-17T06:36:19;-2.40;1.00
573;DHT22;271;51.114;13.780;2022-12-17T06:39:04;-2.40;1.00
573;DHT22;271;51.114;13.780;2022-12-17T06:42:00;-2.50;1.00
573;DHT22;271;51.114;13.780;2022-12-17T06:44:48;-2.40;1.00
573;DHT22;271;51.114;13.780;2022-12-17T06:47:33;-2.50;1.00
573;DHT22;271;51.114;13.780;2022-12-17T06:50:18;-2.40;1.00
573;DHT22;271;51.114;13.780;2022-12-17T06:53:06;-2.40;1.00
573;DHT22;271;51.114;13.780;2022-12-17T06:55:51;-2.50;1.00
573;DHT22;271;51.114;13.780;2022-12-17T06:58:36;-2.50;1.00
573;DHT22;271;51.114;13.780;2022-12-17T07:01:21;-2.40;1.00
573;DHT22;271;51.114;13.780;2022-12-17T07:04:06;-2.40;1.00
573;DHT22;271;51.114;13.780;2022-12-17T07:06:51;-2.40;1.00
573;DHT22;271;51.114;13.780;2022-12-17T07:09:40;-2.40;1.00
573;DHT22;271;51.114;13.780;2022-12-17T07:12:24;-2.40;1.00
573;DHT22;271;51.114;13.780;2022-12-17T07:15:09;-2.30;1.00
573;DHT22;271;51.114;13.780;2022-12-17T07:17:55;-2.30;1.00
573;DHT22;271;51.114;13.780;2022-12-17T07:20:40;-2.30;1.00
573;DHT22;271;51.114;13.780;2022-12-17T07:23:25;-2.40;1.00
573;DHT22;271;51.114;13.780;2022-12-17T07:26:11;-2.30;1.00
573;DHT22;271;51.114;13.780;2022-12-17T07:28:56;-2.30;1.00
573;DHT22;271;51.114;13.780;2022-12-17T07:31:41;-2.30;1.00
573;DHT22;271;51.114;13.780;2022-12-17T07:34:26;-2.30;1.00
573;DHT22;271;51.114;13.780;2022-12-17T07:37:11;-2.30;1.00
573;DHT22;271;51.114;13.780;2022-12-17T07:39:56;-2.30;1.00
573;DHT22;271;51.114;13.780;2022-12-17T07:42:42;-2.30;1.00
573;DHT22;271;51.114;13.780;2022-12-17T07:45:27;-2.30;1.00
573;DHT22;271;51.114;13.780;2022-12-17T07:48:12;-2.30;1.00
573;DHT22;271;51.114;13.780;2022-12-17T07:50:57;-2.30;1.00
573;DHT22;271;51.114;13.780;2022-12-17T07:53:41;-2.30;1.00
573;DHT22;271;51.114;13.780;2022-12-17T07:56:26;-2.20;1.00
573;DHT22;271;51.114;13.780;2022-12-17T07:59:24;-2.20;1.00
573;DHT22;271;51.114;13.780;2022-12-17T08:02:09;-2.20;1.00
573;DHT22;271;51.114;13.780;2022-12-17T08:05:09;-2.30;1.00
573;DHT22;271;51.114;13.780;2022-12-17T08:08:09;-2.20;1.00
573;DHT22;271;51.114;13.780;2022-12-17T08:10:54;-2.20;1.00
573;DHT22;271;51.114;13.780;2022-12-17T08:13:39;-2.20;1.00
573;DHT22;271;51.114;13.780;2022-12-17T08:16:30;-2.00;1.00
573;DHT22;271;51.114;13.780;2022-12-17T08:19:16;-2.10;1.00
573;DHT22;271;51.114;13.780;2022-12-17T08:22:01;-2.10;1.00
573;DHT22;271;51.114;13.780;2022-12-17T08:24:46;-2.10;1.00
573;DHT22;271;51.114;13.780;2022-12-17T08:27:31;-2.00;1.00
573;DHT22;271;51.114;13.780;2022-12-17T08:30:27;-2.10;1.00
573;DHT22;271;51.114;13.780;2022-12-17T08:33:13;-2.00;1.00
573;DHT22;271;51.114;13.780;2022-12-17T08:35:58;-2.00;1.00
573;DHT22;271;51.114;13.780;2022-12-17T08:38:44;-2.00;1.00
573;DHT22;271;51.114;13.780;2022-12-17T08:41:31;-2.00;1.00
573;DHT22;271;51.114;13.780;2022-12-17T08:44:17;-2.00;1.00
573;DHT22;271;51.114;13.780;2022-12-17T08:47:01;-1.90;1.00
573;DHT22;271;51.114;13.780;2022-12-17T08:49:47;-1.90;1.00
573;DHT22;271;51.114;13.780;2022-12-17T08:52:32;-1.90;1.00
573;DHT22;271;51.114;13.780;2022-12-17T08:55:17;-1.90;1.00
573;DHT22;271;51.114;13.780;2022-12-17T08:58:02;-1.90;1.00
573;DHT22;271;51.114;13.780;2022-12-17T09:00:46;-1.80;1.00
573;DHT22;271;51.114;13.780;2022-12-17T09:03:31;-1.90;1.00
573;DHT22;271;51.114;13.780;2022-12-17T09:06:19;-1.90;1.00
573;DHT22;271;51.114;13.780;2022-12-17T09:09:04;-1.90;1.00
573;DHT22;271;51.114;13.780;2022-12-17T09:11:49;-1.90;1.00
573;DHT22;271;51.114;13.780;2022-12-17T09:14:34;-2.00;1.00
573;DHT22;271;51.114;13.780;2022-12-17T09:17:19;-1.90;1.00
573;DHT22;271;51.114;13.780;2022-12-17T09:20:04;-1.90;1.00
573;DHT22;271;51.114;13.780;2022-12-17T09:22:51;-1.90;1.00
573;DHT22;271;51.114;13.780;2022-12-17T09:25:36;-1.90;1.00
573;DHT22;271;51.114;13.780;2022-12-17T09:28:21;-1.80;1.00
573;DHT22;271;51.114;13.780;2022-12-17T09:31:06;-1.70;1.00
573;DHT22;271;51.114;13.780;2022-12-17T09:33:50;-1.70;1.00
573;DHT22;271;51.114;13.780;2022-12-17T09:36:36;-1.60;1.00
573;DHT22;271;51.114;13.780;2022-12-17T09:39:23;-1.60;1.00
573;DHT22;271;51.114;13.780;2022-12-17T09:42:16;-1.60;1.00
573;DHT22;271;51.114;13.780;2022-12-17T09:45:10;-1.50;1.00
573;DHT22;271;51.114;13.780;2022-12-17T09:48:01;-1.50;1.00
573;DHT22;271;51.114;13.780;2022-12-17T09:50:51;-1.60;1.00
573;DHT22;271;51.114;13.780;2022-12-17T09:53:37;-1.50;1.00
573;DHT22;271;51.114;13.780;2022-12-17T09:56:27;-1.50;1.00
573;DHT22;271;51.114;13.780;2022-12-17T09:59:19;-1.40;1.00
573;DHT22;271;51.114;13.780;2022-12-17T10:02:11;-1.50;1.00
573;DHT22;271;51.114;13.780;2022-12-17T10:04:58;-1.50;1.00
573;DHT22;271;51.114;13.780;2022-12-17T10:07:44;-1.60;1.00
573;DHT22;271;51.114;13.780;2022-12-17T10:10:31;-1.50;1.00
573;DHT22;271;51.114;13.780;2022-12-17T10:13:20;-1.50;1.00
573;DHT22;271;51.114;13.780;2022-12-17T10:16:24;-1.50;1.00
573;DHT22;271;51.114;13.780;2022-12-17T10:19:15;-1.40;1.00
573;DHT22;271;51.114;13.780;2022-12-17T10:22:09;-1.40;1.00
573;DHT22;271;51.114;13.780;2022-12-17T10:24:54;-1.40;1.00
573;DHT22;271;51.114;13.780;2022-12-17T10:27:39;-1.40;1.00
573;DHT22;271;51.114;13.780;2022-12-17T10:30:27;-1.60;1.00
573;DHT22;271;51.114;13.780;2022-12-17T10:33:15;-1.50;1.00
573;DHT22;271;51.114;13.780;2022-12-17T10:36:02;-1.50;1.00
573;DHT22;271;51.114;13.780;2022-12-17T10:38:53;-1.50;1.00
573;DHT22;271;51.114;13.780;2022-12-17T10:41:42;-1.50;1.00
573;DHT22;271;51.114;13.780;2022-12-17T10:44:28;-1.50;1.00
573;DHT22;271;51.114;13.780;2022-12-17T10:47:16;-1.40;1.00
573;DHT22;271;51.114;13.780;2022-12-17T10:50:05;-1.40;1.00
573;DHT22;271;51.114;13.780;2022-12-17T10:52:50;-1.40;1.00
573;DHT22;271;51.114;13.780;2022-12-17T10:55:35;-1.40;1.00
573;DHT22;271;51.114;13.780;2022-12-17T10:58:22;-1.40;1.00
573;DHT22;271;51.114;13.780;2022-12-17T11:01:10;-1.40;1.00
573;DHT22;271;51.114;13.780;2022-12-17T11:03:58;-1.30;1.00
573;DHT22;271;51.114;13.780;2022-12-17T11:06:45;-1.30;1.00
573;DHT22;271;51.114;13.780;2022-12-17T11:09:40;-1.20;1.00
573;DHT22;271;51.114;13.780;2022-12-17T11:12:29;-1.10;1.00
573;DHT22;271;51.114;13.780;2022-12-17T11:15:19;-1.00;1.00
573;DHT22;271;51.114;13.780;2022-12-17T11:18:12;-1.00;1.00
573;DHT22;271;51.114;13.780;2022-12-17T11:21:05;-1.10;1.00
573;DHT22;271;51.114;13.780;2022-12-17T11:23:52;-1.20;1.00
573;DHT22;271;51.114;13.780;2022-12-17T11:26:41;-1.10;1.00
573;DHT22;271;51.114;13.780;2022-12-17T11:29:28;-1.10;1.00
573;DHT22;271;51.114;13.780;2022-12-17T11:32:44;-1.10;1.00
573;DHT22;271;51.114;13.780;2022-12-17T11:35:38;-1.10;1.00
573;DHT22;271;51.114;13.780;2022-12-17T11:38:32;-1.10;1.00
573;DHT22;271;51.114;13.780;2022-12-17T11:41:27;-1.00;1.00
573;DHT22;271;51.114;13.780;2022-12-17T11:44:19;-1.10;1.00
573;DHT22;271;51.114;13.780;2022-12-17T11:47:15;-1.10;1.00
573;DHT22;271;51.114;13.780;2022-12-17T11:50:12;-1.10;1.00
573;DHT22;271;51.114;13.780;2022-12-17T11:53:26;-1.10;1.00
573;DHT22;271;51.114;13.780;2022-12-17T11:56:20;-1.10;1.00
573;DHT22;271;51.114;13.780;2022-12-17T11:59:10;-1.10;1.00
573;DHT22;271;51.114;13.780;2022-12-17T12:02:07;-1.10;1.00
573;DHT22;271;51.114;13.780;2022-12-17T12:05:09;-1.20;1.00
573;DHT22;271;51.114;13.780;2022-12-17T12:08:01;-1.10;1.00
573;DHT22;271;51.114;13.780;2022-12-17T12:10:55;-1.00;1.00
573;DHT22;271;51.114;13.780;2022-12-17T12:13:47;-1.00;1.00
573;DHT22;271;51.114;13.780;2022-12-17T12:16:39;-1.10;1.00
573;DHT22;271;51.114;13.780;2022-12-17T12:19:45;-1.00;1.00
573;DHT22;271;51.114;13.780;2022-12-17T12:22:34;-1.00;1.00
573;DHT22;271;51.114;13.780;2022-12-17T12:25:30;-1.00;1.00
573;DHT22;271;51.114;13.780;2022-12-17T12:28:25;-0.90;1.00
573;DHT22;271;51.114;13.780;2022-12-17T12:31:21;-1.00;1.00
573;DHT22;271;51.114;13.780;2022-12-17T12:34:11;-0.90;1.00
573;DHT22;271;51.114;13.780;2022-12-17T12:37:00;-1.00;1.00
573;DHT22;271;51.114;13.780;2022-12-17T12:39:58;-1.00;1.00
573;DHT22;271;51.114;13.780;2022-12-17T12:42:50;-1.10;1.00
573;DHT22;271;51.114;13.780;2022-12-17T12:46:01;-1.00;1.00
573;DHT22;271;51.114;13.780;2022-12-17T12:48:53;-1.00;1.00
573;DHT22;271;51.114;13.780;2022-12-17T12:51:58;-1.10;1.00
573;DHT22;271;51.114;13.780;2022-12-17T12:55:03;-1.10;1.00
573;DHT22;271;51.114;13.780;2022-12-17T12:57:56;-1.10;1.00
573;DHT22;271;51.114;13.780;2022-12-17T13:00:51;-1.00;1.00
573;DHT22;271;51.114;13.780;2022-12-17T13:03:39;-1.00;1.00
573;DHT22;271;51.114;13.780;2022-12-17T13:06:44;-0.90;1.00
573;DHT22;271;51.114;13.780;2022-12-17T13:09:29;-1.10;1.00
573;DHT22;271;51.114;13.780;2022-12-17T13:12:22;-1.10;1.00
573;DHT22;271;51.114;13.780;2022-12-17T13:15:08;-1.10;1.00
573;DHT22;271;51.114;13.780;2022-12-17T13:17:40;-1.10;1.00
573;DHT22;271;51.114;13.780;2022-12-17T13:20:29;-1.10;1.00
573;DHT22;271;51.114;13.780;2022-12-17T13:23:29;-1.10;1.00
573;DHT22;271;51.114;13.780;2022-12-17T13:26:17;-1.10;1.00
573;DHT22;271;51.114;13.780;2022-12-17T13:29:00;-1.20;1.00
573;DHT22;271;51.114;13.780;2022-12-17T13:31:43;-1.10;1.00
573;DHT22;271;51.114;13.780;2022-12-17T13:34:22;-1.00;1.00
573;DHT22;271;51.114;13.780;2022-12-17T13:36:58;-1.10;1.00
573;DHT22;271;51.114;13.780;2022-12-17T13:39:40;-1.10;1.00
573;DHT22;271;51.114;13.780;2022-12-17T13:43:46;-1.10;1.00
573;DHT22;271;51.114;13.780;2022-12-17T13:46:40;-1.00;1.00
573;DHT22;271;51.114;13.780;2022-12-17T13:50:02;-1.00;1.00
573;DHT22;271;51.114;13.780;2022-12-17T13:56:09;-1.00;1.00
573;DHT22;271;51.114;13.780;2022-12-17T13:58:36;-1.00;1.00
573;DHT22;271;51.114;13.780;2022-12-17T14:01:05;-1.10;1.00
573;DHT22;271;51.114;13.780;2022-12-17T14:03:34;-1.10;1.00
573;DHT22;271;51.114;13.780;2022-12-17T14:06:20;-1.20;1.00
573;DHT22;271;51.114;13.780;2022-12-17T14:08:50;-1.20;1.00
573;DHT22;271;51.114;13.780;2022-12-17T14:11:20;-1.30;1.00
573;DHT22;271;51.114;13.780;2022-12-17T14:14:11;-1.30;1.00
573;DHT22;271;51.114;13.780;2022-12-17T14:17:01;-1.20;1.00
573;DHT22;271;51.114;13.780;2022-12-17T14:19:33;-1.20;1.00
573;DHT22;271;51.114;13.780;2022-12-17T14:22:02;-1.30;1.00
573;DHT22;271;51.114;13.780;2022-12-17T14:24:30;-1.30;1.00
573;DHT22;271;51.114;13.780;2022-12-17T14:26:59;-1.40;1.00
573;DHT22;271;51.114;13.780;2022-12-17T14:29:28;-1.30;1.00
573;DHT22;271;51.114;13.780;2022-12-17T14:31:58;-1.40;1.00
573;DHT22;271;51.114;13.780;2022-12-17T14:34:26;-1.30;1.00
573;DHT22;271;51.114;13.780;2022-12-17T14:36:56;-1.30;1.00
573;DHT22;271;51.114;13.780;2022-12-17T14:39:26;-1.30;1.00
573;DHT22;271;51.114;13.780;2022-12-17T14:41:55;-1.30;1.00
573;DHT22;271;51.114;13.780;2022-12-17T14:44:50;-1.30;1.00
573;DHT22;271;51.114;13.780;2022-12-17T14:47:20;-1.20;1.00
573;DHT22;271;51.114;13.780;2022-12-17T14:50:02;-1.30;1.00
573;DHT22;271;51.114;13.780;2022-12-17T14:52:36;-1.40;1.00
573;DHT22;271;51.114;13.780;2022-12-17T14:55:25;-1.40;1.00
573;DHT22;271;51.114;13.780;2022-12-17T14:58:06;-1.40;1.00
573;DHT22;271;51.114;13.780;2022-12-17T15:00:36;-1.50;1.00
573;DHT22;271;51.114;13.780;2022-12-17T15:03:04;-1.30;1.00
573;DHT22;271;51.114;13.780;2022-12-17T15:05:31;-1.40;1.00
573;DHT22;271;51.114;13.780;2022-12-17T15:08:01;-1.40;1.00
573;DHT22;271;51.114;13.780;2022-12-17T15:10:30;-1.30;1.00
573;DHT22;271;51.114;13.780;2022-12-17T15:12:57;-1.40;1.00
573;DHT22;271;51.114;13.780;2022-12-17T15:15:25;-1.50;1.00
573;DHT22;271;51.114;13.780;2022-12-17T15:17:54;-1.50;1.00
573;DHT22;271;51.114;13.780;2022-12-17T15:20:21;-1.40;1.00
573;DHT22;271;51.114;13.780;2022-12-17T15:22:49;-1.40;1.00
573;DHT22;271;51.114;13.780;2022-12-17T15:25:18;-1.50;1.00
573;DHT22;271;51.114;13.780;2022-12-17T15:27:45;-1.50;1.00
573;DHT22;271;51.114;13.780;2022-12-17T15:30:14;-1.40;1.00
573;DHT22;271;51.114;13.780;2022-12-17T15:32:42;-1.60;1.00
573;DHT22;271;51.114;13.780;2022-12-17T15:35:11;-1.50;1.00
573;DHT22;271;51.114;13.780;2022-12-17T15:37:39;-1.50;1.00
573;DHT22;271;51.114;13.780;2022-12-17T15:40:08;-1.50;1.00
573;DHT22;271;51.114;13.780;2022-12-17T15:42:37;-1.50;1.00
573;DHT22;271;51.114;13.780;2022-12-17T15:45:24;-1.50;1.00
573;DHT22;271;51.114;13.780;2022-12-17T15:47:52;-1.60;1.00
573;DHT22;271;51.114;13.780;2022-12-17T15:50:22;-1.40;1.00
573;DHT22;271;51.114;13.780;2022-12-17T15:52:49;-1.60;1.00
573;DHT22;271;51.114;13.780;2022-12-17T15:55:19;-1.60;1.00
573;DHT22;271;51.114;13.780;2022-12-17T15:58:06;-1.50;1.00
573;DHT22;271;51.114;13.780;2022-12-17T16:00:35;-1.50;1.00
573;DHT22;271;51.114;13.780;2022-12-17T16:03:03;-1.50;1.00
573;DHT22;271;51.114;13.780;2022-12-17T16:05:32;-1.60;1.00
573;DHT22;271;51.114;13.780;2022-12-17T16:08:00;-1.60;1.00
573;DHT22;271;51.114;13.780;2022-12-17T16:10:30;-1.60;1.00
573;DHT22;271;51.114;13.780;2022-12-17T16:13:09;-1.50;1.00
573;DHT22;271;51.114;13.780;2022-12-17T16:15:37;-1.50;1.00
573;DHT22;271;51.114;13.780;2022-12-17T16:18:04;-1.40;1.00
573;DHT22;271;51.114;13.780;2022-12-17T16:20:50;-1.50;1.00
573;DHT22;271;51.114;13.780;2022-12-17T16:23:19;-1.50;1.00
573;DHT22;271;51.114;13.780;2022-12-17T16:25:55;-1.60;1.00
573;DHT22;271;51.114;13.780;2022-12-17T16:28:23;-1.50;1.00
573;DHT22;271;51.114;13.780;2022-12-17T16:30:58;-1.50;1.00
573;DHT22;271;51.114;13.780;2022-12-17T16:33:25;-1.60;1.00
573;DHT22;271;51.114;13.780;2022-12-17T16:35:55;-1.60;1.00
573;DHT22;271;51.114;13.780;2022-12-17T16:38:23;-1.60;1.00
573;DHT22;271;51.114;13.780;2022-12-17T16:40:53;-1.60;1.00
573;DHT22;271;51.114;13.780;2022-12-17T16:43:21;-1.60;1.00
573;DHT22;271;51.114;13.780;2022-12-17T16:45:49;-1.60;1.00
573;DHT22;271;51.114;13.780;2022-12-17T16:48:18;-1.60;1.00
573;DHT22;271;51.114;13.780;2022-12-17T16:50:47;-1.70;1.00
573;DHT22;271;51.114;13.780;2022-12-17T16:53:17;-1.70;1.00
573;DHT22;271;51.114;13.780;2022-12-17T16:55:47;-1.70;1.00
573;DHT22;271;51.114;13.780;2022-12-17T16:58:16;-1.80;1.00
573;DHT22;271;51.114;13.780;2022-12-17T17:00:44;-1.90;1.00
573;DHT22;271;51.114;13.780;2022-12-17T17:03:12;-1.90;1.00
573;DHT22;271;51.114;13.780;2022-12-17T17:05:39;-1.90;1.00
573;DHT22;271;51.114;13.780;2022-12-17T17:08:07;-1.90;1.00
573;DHT22;271;51.114;13.780;2022-12-17T17:10:36;-1.90;1.00
573;DHT22;271;51.114;13.780;2022-12-17T17:13:03;-1.90;1.00
573;DHT22;271;51.114;13.780;2022-12-17T17:15:31;-1.90;1.00
573;DHT22;271;51.114;13.780;2022-12-17T17:17:58;-2.00;1.00
573;DHT22;271;51.114;13.780;2022-12-17T17:20:26;-2.10;1.00
573;DHT22;271;51.114;13.780;2022-12-17T17:22:57;-2.10;1.00
573;DHT22;271;51.114;13.780;2022-12-17T17:25:24;-2.20;1.00
573;DHT22;271;51.114;13.780;2022-12-17T17:27:53;-2.20;1.00
573;DHT22;271;51.114;13.780;2022-12-17T17:30:21;-2.20;1.00
573;DHT22;271;51.114;13.780;2022-12-17T17:32:48;-2.30;1.00
573;DHT22;271;51.114;13.780;2022-12-17T17:35:16;-2.40;1.00
573;DHT22;271;51.114;13.780;2022-12-17T17:37:43;-2.40;1.00
573;DHT22;271;51.114;13.780;2022-12-17T17:40:12;-2.40;1.00
573;DHT22;271;51.114;13.780;2022-12-17T17:42:39;-2.40;1.00
573;DHT22;271;51.114;13.780;2022-12-17T17:45:09;-2.40;1.00
573;DHT22;271;51.114;13.780;2022-12-17T17:47:37;-2.50;1.00
573;DHT22;271;51.114;13.780;2022-12-17T17:50:05;-2.50;1.00
573;DHT22;271;51.114;13.780;2022-12-17T17:52:33;-2.50;1.00
573;DHT22;271;51.114;13.780;2022-12-17T17:55:00;-2.30;1.00
573;DHT22;271;51.114;13.780;2022-12-17T17:57:28;-2.40;1.00
573;DHT22;271;51.114;13.780;2022-12-17T17:59:55;-2.50;1.00
573;DHT22;271;51.114;13.780;2022-12-17T18:02:24;-2.60;1.00
573;DHT22;271;51.114;13.780;2022-12-17T18:04:52;-2.50;1.00
573;DHT22;271;51.114;13.780;2022-12-17T18:07:19;-2.50;1.00
573;DHT22;271;51.114;13.780;2022-12-17T18:09:47;-2.40;1.00
573;DHT22;271;51.114;13.780;2022-12-17T18:12:14;-2.50;1.00
573;DHT22;271;51.114;13.780;2022-12-17T18:14:59;-2.50;1.00
573;DHT22;271;51.114;13.780;2022-12-17T18:17:28;-2.60;1.00
573;DHT22;271;51.114;13.780;2022-12-17T18:19:55;-2.60;1.00
573;DHT22;271;51.114;13.780;2022-12-17T18:22:23;-2.60;1.00
573;DHT22;271;51.114;13.780;2022-12-17T18:24:50;-2.60;1.00